Time;durP1;ratioP1;P1;durP2;ratioP2;P2;SDS_P1;SDS_P2;PMS_P1;PMS_P2;Temp;Humidity;BMP_temperature;BMP_pressure;BME280_temperature;BME280_humidity;BME280_pressure;Samples;Min_cycle;Max_cycle;Signal;HPM_P1;HPM_P2
2021/12/07 00:00:31;;;;;;;22.50;4.60;;;;;;;4.40;100.00;100255.66;5050749;28;20396;-48
2021/12/07 00:02:57;;;;;;;27.77;3.88;;;;;;;4.85;100.00;100320.03;5050780;28;20029;-46
2021/12/07 00:05:22;;;;;;;25.00;4.85;;;;;;;4.62;100.00;100266.56;5051992;28;20041;-50
2021/12/07 00:07:48;;;;;;;20.58;4.28;;;;;;;4.93;100.00;100325.94;5052185;28;20041;-48
2021/12/07 00:10:15;;;;;;;26.05;4.97;;;;;;;4.95;100.00;100342.47;5052177;28;20078;-47
2021/12/07 00:12:44;;;;;;;21.25;3.92;;;;;;;4.99;100.00;100336.28;5052199;28;20032;-50
2021/12/07 00:23:25;;;;;;;17.00;3.60;;;;;;;4.94;100.00;100351.16;5050635;28;20043;-49
2021/12/07 00:25:50;;;;;;;17.70;3.78;;;;;;;4.90;100.00;100352.09;5050375;28;20029;-49
2021/12/07 00:28:19;;;;;;;12.85;2.75;;;;;;;4.89;100.00;100368.66;5047707;28;20153;-53
2021/12/07 00:30:44;;;;;;;20.13;3.30;;;;;;;4.89;100.00;100373.00;5051091;28;20128;-48
2021/12/07 00:35:50;;;;;;;12.30;2.78;;;;;;;4.62;100.00;100329.97;5051838;28;20037;-52
2021/12/07 00:38:25;;;;;;;7.93;2.47;;;;;;;4.89;100.00;100368.66;5049974;28;20057;-50
2021/12/07 00:40:52;;;;;;;19.15;3.25;;;;;;;4.98;100.00;100384.13;5051819;28;20033;-50
2021/12/07 00:43:17;;;;;;;18.77;3.45;;;;;;;4.65;100.00;100337.75;5050661;28;20036;-51
2021/12/07 00:45:45;;;;;;;15.57;2.70;;;;;;;4.71;100.00;100328.97;5051588;28;20117;-50
2021/12/07 00:48:13;;;;;;;12.65;2.65;;;;;;;5.04;100.00;100404.03;5051551;28;20037;-49
2021/12/07 00:50:41;;;;;;;16.38;3.53;;;;;;;5.00;100.00;100410.19;5051280;28;20021;-50
2021/12/07 00:53:06;;;;;;;18.45;3.65;;;;;;;4.92;100.00;100409.47;5051868;28;20032;-53
2021/12/07 00:55:37;;;;;;;21.67;3.70;;;;;;;4.94;100.00;100413.75;5050406;28;20029;-49
2021/12/07 00:58:12;;;;;;;14.82;3.47;;;;;;;4.82;100.00;100408.72;5051742;28;20029;-53
2021/12/07 01:00:38;;;;;;;13.35;3.30;;;;;;;4.88;100.00;100426.03;5051610;28;20033;-51
2021/12/07 01:03:03;;;;;;;15.25;3.42;;;;;;;4.85;100.00;100420.84;5051416;28;20044;-52
2021/12/07 01:05:32;;;;;;;18.70;2.75;;;;;;;4.83;100.00;100439.16;5051416;28;20025;-47
2021/12/07 01:26:51;;;;;;;14.05;2.70;;;;;;;4.15;100.00;100411.44;5054942;28;20044;-48
2021/12/07 01:29:19;;;;;;;15.05;2.97;;;;;;;4.02;100.00;100402.09;5054764;28;20480;-50
2021/12/07 01:34:50;;;;;;;18.45;3.17;;;;;;;3.96;100.00;100402.16;5054665;28;20041;-49
2021/12/07 01:40:07;;;;;;;11.80;2.90;;;;;;;3.91;100.00;100427.41;5054506;28;20048;-48
2021/12/07 01:42:57;;;;;;;13.82;2.58;;;;;;;4.21;100.00;100483.44;5053492;28;20361;-47
2021/12/07 02:01:40;;;;;;;10.40;2.63;;;;;;;4.26;100.00;100494.69;5053283;28;20055;-52
2021/12/07 02:04:05;;;;;;;15.57;2.88;;;;;;;3.98;100.00;100448.13;5052759;28;20033;-49
2021/12/07 02:06:31;;;;;;;14.55;2.97;;;;;;;4.00;100.00;100452.47;5052903;28;20451;-47
2021/12/07 02:08:56;;;;;;;16.30;3.15;;;;;;;4.46;100.00;100527.44;5053829;28;20468;-49
2021/12/07 02:11:22;;;;;;;15.35;2.80;;;;;;;4.09;100.00;100458.41;5053857;28;20036;-50
2021/12/07 02:16:15;;;;;;;12.77;3.42;;;;;;;3.98;100.00;100458.56;5053680;28;20114;-48
2021/12/07 02:18:40;;;;;;;18.58;2.75;;;;;;;4.42;100.00;100527.50;5051408;28;20028;-49
2021/12/07 02:21:16;;;;;;;16.08;3.00;;;;;;;4.35;100.00;100528.47;5052374;28;20484;-50
2021/12/07 02:23:41;;;;;;;15.00;4.45;;;;;;;4.03;100.00;100481.91;5053765;28;20036;-54
2021/12/07 02:26:06;;;;;;;16.65;2.72;;;;;;;4.35;100.00;100549.31;5053543;28;20032;-51
2021/12/07 02:28:32;;;;;;;11.52;2.67;;;;;;;4.39;100.00;100549.25;5053258;28;20056;-48
2021/12/07 02:30:57;;;;;;;10.48;3.25;;;;;;;4.44;100.00;100551.78;5053785;28;20090;-49
2021/12/07 02:33:23;;;;;;;11.73;2.85;;;;;;;4.45;100.00;100556.97;5053649;28;20437;-50
2021/12/07 02:35:48;;;;;;;14.07;3.17;;;;;;;4.45;100.00;100562.19;5053506;28;20040;-48
2021/12/07 02:38:13;;;;;;;11.50;3.08;;;;;;;4.43;100.00;100571.78;5051918;28;20127;-49
2021/12/07 02:40:39;;;;;;;12.43;3.47;;;;;;;4.39;100.00;100572.69;5053404;28;20028;-50
2021/12/07 02:43:04;;;;;;;15.02;3.03;;;;;;;4.32;100.00;100559.75;5053209;28;20086;-47
2021/12/07 02:45:29;;;;;;;13.75;2.80;;;;;;;4.35;100.00;100578.81;5053192;28;20114;-49
2021/12/07 02:47:55;;;;;;;12.85;2.33;;;;;;;4.27;100.00;100571.94;5053506;28;20033;-52
2021/12/07 02:50:21;;;;;;;11.68;3.05;;;;;;;4.07;100.00;100530.50;5053269;28;20092;-51
2021/12/07 02:52:47;;;;;;;10.52;2.35;;;;;;;4.37;100.00;100578.81;5053214;28;20033;-52
2021/12/07 02:55:13;;;;;;;12.70;2.70;;;;;;;4.40;100.00;100578.78;5051732;28;20404;-49
2021/12/07 02:57:38;;;;;;;11.80;2.35;;;;;;;4.07;100.00;100522.69;5052954;28;20116;-49
2021/12/07 03:00:12;;;;;;;18.55;3.25;;;;;;;4.43;100.00;100590.03;5053000;28;20548;-49
2021/12/07 03:02:44;;;;;;;11.43;2.58;;;;;;;4.41;100.00;100581.34;5053053;28;20032;-48
2021/12/07 03:05:42;;;;;;;14.02;2.80;;;;;;;3.96;100.00;100512.41;5051794;28;20124;-52
2021/12/07 03:27:25;;;;;;;16.75;2.78;;;;;;;4.83;100.00;100626.91;5052439;28;20067;-54
2021/12/07 03:29:50;;;;;;;13.68;2.63;;;;;;;4.89;100.00;100618.13;5052364;28;20467;-48
2021/12/07 03:32:17;;;;;;;12.45;2.97;;;;;;;4.91;100.00;100614.63;5052149;28;20029;-47
2021/12/07 03:34:42;;;;;;;13.25;2.85;;;;;;;4.96;100.00;100614.56;5052065;28;20094;-49
2021/12/07 03:37:08;;;;;;;11.40;2.63;;;;;;;4.69;100.00;100574.06;5051924;28;20033;-51
2021/12/07 03:39:33;;;;;;;13.82;2.60;;;;;;;4.98;100.00;100651.94;5052096;28;20051;-50
2021/12/07 03:41:58;;;;;;;15.65;2.85;;;;;;;4.84;100.00;100628.63;5052507;28;20485;-48
2021/12/07 03:44:24;;;;;;;12.40;2.50;;;;;;;4.44;100.00;100557.84;5052325;28;20037;-53
2021/12/07 03:46:49;;;;;;;18.95;2.15;;;;;;;4.45;100.00;100570.00;5051066;28;20033;-50
2021/12/07 03:49:14;;;;;;;12.73;2.88;;;;;;;4.36;100.00;100556.22;5052266;28;20033;-50
2021/12/07 03:51:40;;;;;;;13.40;2.97;;;;;;;4.78;100.00;100639.16;5052715;28;20040;-54
2021/12/07 03:54:06;;;;;;;21.83;3.20;;;;;;;4.82;100.00;100647.78;5052157;28;20069;-49
2021/12/07 03:56:32;;;;;;;14.80;2.47;;;;;;;4.49;100.00;100574.28;5051099;28;20083;-50
2021/12/07 03:58:58;;;;;;;7.65;2.35;;;;;;;4.88;100.00;100626.84;5034586;28;20095;-52
2021/12/07 04:01:24;;;;;;;11.68;2.47;;;;;;;4.52;100.00;100578.63;5052159;28;20037;-49
2021/12/07 04:03:52;;;;;;;14.45;2.72;;;;;;;4.39;100.00;100577.91;5050943;28;20377;-52
2021/12/07 04:06:18;;;;;;;8.98;2.45;;;;;;;4.70;100.00;100642.72;5050738;28;20053;-51
2021/12/07 04:08:43;;;;;;;13.32;2.45;;;;;;;4.45;100.00;100616.94;5050662;28;20075;-48
2021/12/07 04:11:09;;;;;;;14.68;2.92;;;;;;;4.20;100.00;100581.59;5052145;28;20441;-50
2021/12/07 04:13:35;;;;;;;17.92;3.03;;;;;;;4.34;100.00;100599.69;5034595;28;20496;-48
2021/12/07 04:16:00;;;;;;;10.13;2.70;;;;;;;4.62;100.00;100657.56;5050719;28;20061;-52
2021/12/07 04:18:28;;;;;;;9.55;2.50;;;;;;;4.61;100.00;100648.91;5051802;28;20037;-53
2021/12/07 04:20:53;;;;;;;16.17;2.92;;;;;;;4.30;100.00;100593.63;5051840;28;20033;-51
2021/12/07 04:23:19;;;;;;;17.60;2.85;;;;;;;4.61;100.00;100628.06;5052277;28;20029;-52
2021/12/07 04:25:44;;;;;;;14.80;3.25;;;;;;;4.65;100.00;100660.13;5034537;28;20040;-53
2021/12/07 04:28:10;;;;;;;13.52;2.78;;;;;;;4.63;100.00;100661.91;5051931;28;20084;-53
2021/12/07 04:30:38;;;;;;;14.00;3.10;;;;;;;4.18;100.00;100587.69;5051920;28;20029;-51
2021/12/07 04:33:06;;;;;;;13.30;2.63;;;;;;;4.52;100.00;100672.47;5050590;28;20512;-50
2021/12/07 04:35:32;;;;;;;7.82;2.17;;;;;;;4.50;100.00;100671.59;5051799;28;20037;-52
2021/12/07 04:37:58;;;;;;;12.93;2.38;;;;;;;4.03;100.00;100599.13;5051729;28;20120;-49
2021/12/07 04:40:26;;;;;;;13.57;2.60;;;;;;;4.34;100.00;100654.41;5051538;28;20041;-51
2021/12/07 04:42:52;;;;;;;12.30;2.80;;;;;;;4.10;100.00;100620.75;5054621;28;20039;-51
2021/12/07 04:45:32;;;;;;;11.00;2.40;;;;;;;4.41;100.00;100654.31;5054362;28;20419;-50
2021/12/07 04:58:29;;;;;;;20.17;2.90;;;;;;;4.05;100.00;100600.00;5054414;28;20111;-49
2021/12/07 05:00:54;;;;;;;11.07;2.60;;;;;;;4.47;100.00;100690.75;5053955;28;20472;-54
2021/12/07 05:03:20;;;;;;;10.50;2.65;;;;;;;4.37;100.00;100676.09;5055007;28;20029;-52
2021/12/07 05:05:51;;;;;;;9.63;2.30;;;;;;;4.47;100.00;100682.06;5055242;28;20041;-53
2021/12/07 05:08:31;;;;;;;9.68;2.60;;;;;;;4.36;100.00;100696.94;5055106;28;20033;-50
2021/12/07 05:13:29;;;;;;;10.43;2.53;;;;;;;4.49;100.00;100681.16;5054927;28;20041;-52
2021/12/07 05:16:49;;;;;;;12.50;2.65;;;;;;;4.58;100.00;100700.22;5055043;28;20041;-54
2021/12/07 05:19:00;;;;;;;14.57;2.45;;;;;;;4.59;100.00;100699.31;5047061;28;20044;-50
2021/12/07 05:24:16;;;;;;;12.55;2.78;;;;;;;4.04;100.00;100639.91;5055121;28;20124;-49
2021/12/07 05:37:54;;;;;;;9.60;2.30;;;;;;;4.11;100.00;100737.13;5054582;28;20033;-48
2021/12/07 05:40:33;;;;;;;10.20;2.50;;;;;;;4.01;100.00;100751.06;5054688;28;20040;-51
2021/12/07 05:42:59;;;;;;;9.32;2.13;;;;;;;3.55;100.00;100691.50;5054628;28;20041;-51
2021/12/07 05:45:32;;;;;;;11.02;2.55;;;;;;;3.51;100.00;100699.31;5053092;28;20502;-48
2021/12/07 05:47:58;;;;;;;9.15;2.08;;;;;;;3.74;100.00;100749.50;5054531;28;20499;-50
2021/12/07 05:50:25;;;;;;;11.20;2.63;;;;;;;3.66;100.00;100751.28;5036506;28;20120;-49
2021/12/07 05:52:51;;;;;;;10.52;2.33;;;;;;;3.24;100.00;100682.16;5054034;28;20091;-49
2021/12/07 05:55:16;;;;;;;14.32;2.72;;;;;;;3.51;100.00;100741.84;5036572;28;20041;-54
2021/12/07 05:57:42;;;;;;;15.45;3.67;;;;;;;3.30;100.00;100724.59;5054204;28;20091;-50
2021/12/07 06:00:11;;;;;;;11.38;2.40;;;;;;;2.97;100.00;100677.94;5054121;28;20037;-51
2021/12/07 06:02:37;;;;;;;10.77;3.00;;;;;;;2.69;100.00;100639.91;5054123;28;20029;-50
2021/12/07 06:05:03;;;;;;;9.95;1.80;;;;;;;2.65;100.00;100657.28;5052766;28;20099;-49
2021/12/07 06:07:29;;;;;;;12.07;2.30;;;;;;;2.87;100.00;100716.97;5053969;28;20432;-52
2021/12/07 06:09:54;;;;;;;7.13;2.20;;;;;;;2.44;100.00;100669.44;5052693;28;20037;-48
2021/12/07 06:12:20;;;;;;;12.05;2.20;;;;;;;2.46;100.00;100688.47;5053643;28;20040;-50
2021/12/07 06:14:45;;;;;;;15.40;2.58;;;;;;;2.67;100.00;100738.69;5053700;28;20071;-47
2021/12/07 06:17:12;;;;;;;11.73;2.15;;;;;;;2.24;100.00;100670.34;5053779;28;20037;-52
2021/12/07 06:19:38;;;;;;;7.88;2.50;;;;;;;2.17;100.00;100668.63;5053395;28;20150;-48
2021/12/07 06:22:05;;;;;;;9.45;2.30;;;;;;;2.48;100.00;100734.38;5052211;28;20327;-51
2021/12/07 06:24:31;;;;;;;14.30;2.85;;;;;;;2.35;100.00;100732.66;5053906;28;20036;-48
2021/12/07 06:26:56;;;;;;;12.23;2.67;;;;;;;2.17;100.00;100706.69;5053408;28;20369;-49
2021/12/07 06:29:22;;;;;;;14.15;3.25;;;;;;;1.88;100.00;100674.69;5053699;28;20044;-47
2021/12/07 06:31:47;;;;;;;8.75;2.70;;;;;;;2.12;100.00;100734.41;5052422;28;20028;-49
2021/12/07 06:34:12;;;;;;;8.90;2.30;;;;;;;1.96;100.00;100728.34;5053598;28;20044;-50
2021/12/07 06:36:40;;;;;;;9.32;2.42;;;;;;;1.97;100.00;100732.66;5053370;28;20549;-48
2021/12/07 06:39:06;;;;;;;15.48;2.95;;;;;;;1.88;100.00;100739.56;5053392;28;20087;-48
2021/12/07 06:41:33;;;;;;;15.73;2.97;;;;;;;1.69;100.00;100716.19;5053026;28;20083;-50
2021/12/07 06:43:58;;;;;;;11.30;3.03;;;;;;;1.78;100.00;100740.44;5053355;28;20029;-50
2021/12/07 06:46:23;;;;;;;13.60;3.13;;;;;;;1.68;100.00;100740.44;5053632;28;20044;-48
2021/12/07 06:48:49;;;;;;;13.48;3.03;;;;;;;1.34;100.00;100689.34;5051843;28;20532;-50
2021/12/07 06:51:14;;;;;;;14.48;3.38;;;;;;;1.60;100.00;100743.88;5051801;28;20487;-50
2021/12/07 06:53:40;;;;;;;19.60;4.13;;;;;;;1.57;100.00;100731.75;5053256;28;20086;-51
2021/12/07 06:56:07;;;;;;;11.07;3.22;;;;;;;1.49;100.00;100722.22;5052954;28;20047;-52
2021/12/07 06:58:34;;;;;;;22.00;4.20;;;;;;;1.57;100.00;100736.06;5053106;28;20065;-48
2021/12/07 07:01:00;;;;;;;14.38;4.18;;;;;;;1.06;100.00;100651.22;5051766;28;20400;-52
2021/12/07 07:03:25;;;;;;;9.60;3.38;;;;;;;1.39;100.00;100733.44;5051614;28;20021;-46
2021/12/07 07:05:51;;;;;;;13.23;3.55;;;;;;;1.46;100.00;100740.38;5052178;28;20546;-47
2021/12/07 07:08:17;;;;;;;12.20;3.30;;;;;;;1.05;100.00;100678.03;5052770;28;20040;-47
2021/12/07 07:10:42;;;;;;;15.48;4.15;;;;;;;1.45;100.00;100741.22;5052598;28;20163;-48
2021/12/07 07:13:07;;;;;;;11.82;3.55;;;;;;;1.44;100.00;100744.66;5052738;28;20029;-50
2021/12/07 07:15:33;;;;;;;15.40;3.70;;;;;;;1.37;100.00;100725.63;5052544;28;20123;-50
2021/12/07 07:18:00;;;;;;;13.63;4.60;;;;;;;1.05;100.00;100678.03;5052462;28;20112;-48
2021/12/07 07:20:26;;;;;;;16.08;4.07;;;;;;;1.44;100.00;100742.06;5052435;28;20037;-50
2021/12/07 07:22:52;;;;;;;13.52;4.38;;;;;;;1.47;100.00;100744.69;5051292;28;20067;-51
2021/12/07 07:25:17;;;;;;;14.20;4.65;;;;;;;1.41;100.00;100740.34;5052658;28;20515;-50
2021/12/07 07:27:43;;;;;;;17.58;4.97;;;;;;;1.43;100.00;100733.44;5052359;28;20041;-49
2021/12/07 07:30:10;;;;;;;16.77;4.70;;;;;;;1.39;100.00;100723.06;5052441;28;20037;-50
2021/12/07 07:32:36;;;;;;;18.13;4.45;;;;;;;1.00;100.00;100646.88;5051900;28;20400;-48
2021/12/07 07:35:03;;;;;;;12.88;4.90;;;;;;;1.45;100.00;100716.16;5050376;28;20033;-46
2021/12/07 07:37:28;;;;;;;17.15;4.72;;;;;;;1.10;100.00;100658.16;5049811;28;20029;-50
2021/12/07 07:39:54;;;;;;;12.45;4.28;;;;;;;1.48;100.00;100718.75;5049214;28;20055;-50
2021/12/07 07:42:19;;;;;;;17.55;5.22;;;;;;;1.47;100.00;100714.44;5051254;28;20037;-50
2021/12/07 07:44:44;;;;;;;10.57;4.18;;;;;;;1.46;100.00;100704.91;5052089;28;20072;-47
2021/12/07 07:47:10;;;;;;;11.95;4.53;;;;;;;1.54;100.00;100717.91;5051475;28;20036;-51
2021/12/07 07:49:35;;;;;;;19.52;5.40;;;;;;;1.61;100.00;100724.81;5051872;28;20029;-55
2021/12/07 07:52:00;;;;;;;17.10;5.22;;;;;;;1.28;100.00;100641.78;5052045;28;20032;-50
2021/12/07 07:54:28;;;;;;;18.38;4.93;;;;;;;1.79;100.00;100713.59;5052301;28;20064;-54
2021/12/07 07:56:54;;;;;;;19.25;4.38;;;;;;;1.51;100.00;100648.75;5052393;28;20045;-56
2021/12/07 07:59:19;;;;;;;17.95;5.75;;;;;;;2.09;100.00;100719.69;5050309;28;20033;-56
2021/12/07 08:01:45;;;;;;;12.90;5.60;;;;;;;1.90;100.00;100653.06;5051823;28;20528;-53
2021/12/07 08:04:10;;;;;;;13.55;5.28;;;;;;;2.48;100.00;100718.78;5050678;28;20029;-54
2021/12/07 08:06:35;;;;;;;12.10;6.18;;;;;;;2.62;100.00;100721.38;5051859;28;20059;-51
2021/12/07 08:09:03;;;;;;;20.25;5.32;;;;;;;2.62;100.00;100714.44;5052923;28;20210;-54
2021/12/07 08:11:29;;;;;;;22.80;5.30;;;;;;;2.67;100.00;100711.81;5068221;28;20039;-54
2021/12/07 08:13:54;;;;;;;13.65;5.00;;;;;;;2.74;100.00;100730.00;5032104;28;20029;-51
2021/12/07 08:16:20;;;;;;;17.23;6.28;;;;;;;2.60;100.00;100702.31;5032290;28;20337;-52
2021/12/07 08:18:47;;;;;;;14.63;4.95;;;;;;;2.47;100.00;100679.84;5067982;28;20041;-56
2021/12/07 08:21:15;;;;;;;13.77;4.95;;;;;;;2.76;100.00;100711.81;5035046;28;20124;-53
2021/12/07 08:23:41;;;;;;;14.45;4.60;;;;;;;2.42;100.00;100645.22;5036135;28;20043;-53
2021/12/07 08:26:09;;;;;;;17.98;5.55;;;;;;;2.93;100.00;100720.41;5068201;28;20121;-52
2021/12/07 08:28:35;;;;;;;21.48;5.72;;;;;;;2.96;100.00;100722.13;5036064;28;20050;-54
2021/12/07 08:31:01;;;;;;;18.48;5.03;;;;;;;3.04;100.00;100726.44;5035754;28;20040;-52
2021/12/07 08:33:26;;;;;;;16.52;5.28;;;;;;;2.72;100.00;100660.69;5034609;28;20381;-54
2021/12/07 08:35:52;;;;;;;16.35;5.50;;;;;;;2.84;100.00;100666.72;5035621;28;20033;-55
2021/12/07 08:38:18;;;;;;;17.17;5.07;;;;;;;3.31;100.00;100723.72;5035499;28;20032;-53
2021/12/07 08:40:43;;;;;;;17.98;5.43;;;;;;;3.39;100.00;100718.47;5067709;28;20083;-53
2021/12/07 08:43:11;;;;;;;12.57;4.60;;;;;;;3.44;100.00;100710.66;5034027;28;20428;-55
2021/12/07 08:45:38;;;;;;;12.38;4.05;;;;;;;3.52;100.00;100721.88;5033242;28;20043;-55
2021/12/07 08:48:04;;;;;;;10.50;4.35;;;;;;;3.37;100.00;100673.41;5066589;28;20041;-56
2021/12/07 08:50:33;;;;;;;12.93;4.43;;;;;;;3.52;100.00;100690.66;5033699;28;20041;-56
2021/12/07 08:53:03;;;;;;;12.77;4.70;;;;;;;3.32;100.00;100637.03;5033035;28;20053;-56
2021/12/07 09:00:59;;;;;;;16.08;4.07;;;;;;;3.82;100.00;100711.28;5034255;28;20133;-52
2021/12/07 09:03:25;;;;;;;13.90;3.83;;;;;;;3.54;100.00;100655.06;5034173;28;20022;-55
2021/12/07 09:05:50;;;;;;;14.25;5.15;;;;;;;3.23;100.00;100599.78;5033831;28;20502;-55
2021/12/07 09:08:16;;;;;;;18.65;5.13;;;;;;;3.54;100.00;100660.28;5049216;28;20088;-53
2021/12/07 09:10:42;;;;;;;18.52;4.10;;;;;;;3.87;100.00;100717.31;5049129;28;20061;-56
2021/12/07 09:13:08;;;;;;;15.38;4.30;;;;;;;3.92;100.00;100707.72;5033713;28;20133;-51
2021/12/07 09:15:33;;;;;;;15.38;3.60;;;;;;;4.13;100.00;100711.91;5033847;28;20049;-54
2021/12/07 09:17:59;;;;;;;12.55;3.47;;;;;;;4.33;100.00;100707.38;5034031;28;20519;-55
2021/12/07 09:20:24;;;;;;;12.30;3.50;;;;;;;4.42;100.00;100715.13;5033743;28;20041;-53
2021/12/07 09:22:50;;;;;;;14.05;3.17;;;;;;;4.08;100.00;100656.38;5033906;28;20048;-53
2021/12/07 09:25:16;;;;;;;11.65;3.45;;;;;;;3.95;100.00;100647.81;5048877;28;20065;-50
2021/12/07 09:27:42;;;;;;;14.07;3.17;;;;;;;4.30;100.00;100712.63;5064892;28;20512;-55
2021/12/07 09:30:10;;;;;;;16.45;3.47;;;;;;;4.25;100.00;100717.03;5064770;28;20037;-54
2021/12/07 09:32:35;;;;;;;13.18;3.72;;;;;;;3.88;100.00;100656.56;5032614;28;20029;-55
2021/12/07 09:35:04;;;;;;;15.88;3.42;;;;;;;4.26;100.00;100710.94;5032666;28;20040;-55
2021/12/07 09:37:29;;;;;;;18.65;3.70;;;;;;;4.24;100.00;100702.25;5032570;28;20036;-52
2021/12/07 09:39:55;;;;;;;15.52;4.22;;;;;;;4.23;100.00;100717.00;5032571;28;20475;-52
2021/12/07 09:42:20;;;;;;;23.35;4.43;;;;;;;4.17;100.00;100731.84;5032620;28;20045;-51
2021/12/07 09:44:47;;;;;;;10.90;3.80;;;;;;;4.17;100.00;100730.13;5032457;28;20034;-56
2021/12/07 09:47:12;;;;;;;16.33;3.88;;;;;;;4.17;100.00;100743.16;5032547;28;20052;-53
2021/12/07 09:49:37;;;;;;;13.77;3.88;;;;;;;4.10;100.00;100720.63;5032283;28;20400;-58
2021/12/07 09:52:03;;;;;;;15.90;4.45;;;;;;;4.17;100.00;100737.06;5032215;28;20433;-53
2021/12/07 09:54:28;;;;;;;20.00;4.25;;;;;;;4.18;100.00;100731.81;5032113;28;20041;-55
2021/12/07 09:56:54;;;;;;;11.45;3.95;;;;;;;4.22;100.00;100741.34;5032139;28;20473;-51
2021/12/07 09:59:19;;;;;;;13.52;3.78;;;;;;;4.23;100.00;100742.22;5032407;28;20037;-54
2021/12/07 10:01:44;;;;;;;17.70;4.38;;;;;;;4.18;100.00;100726.63;5032350;28;20095;-54
2021/12/07 10:04:10;;;;;;;11.40;4.60;;;;;;;4.29;100.00;100737.81;5032242;28;20535;-53
2021/12/07 10:06:36;;;;;;;13.65;3.97;;;;;;;4.36;100.00;100729.06;5014326;28;20033;-53
2021/12/07 10:09:03;;;;;;;14.55;4.25;;;;;;;4.48;100.00;100730.69;5031514;28;20083;-57
2021/12/07 10:11:28;;;;;;;15.95;4.22;;;;;;;4.53;100.00;100727.16;5031689;28;20038;-58
2021/12/07 10:13:54;;;;;;;13.35;4.03;;;;;;;4.57;100.00;100717.59;5063902;28;20115;-54
2021/12/07 10:16:21;;;;;;;18.85;4.85;;;;;;;4.62;100.00;100704.50;5031981;28;20124;-55
2021/12/07 10:18:47;;;;;;;18.83;4.30;;;;;;;4.74;100.00;100712.19;5031682;28;20033;-54
2021/12/07 10:21:16;;;;;;;16.63;5.05;;;;;;;4.82;100.00;100703.41;5032138;28;20152;-55
2021/12/07 10:23:50;;;;;;;12.60;3.78;;;;;;;4.57;100.00;100651.56;5031709;28;20032;-53
2021/12/07 10:26:20;;;;;;;16.33;3.90;;;;;;;4.95;100.00;100693.69;5030456;28;20083;-55
2021/12/07 10:29:51;;;;;;;14.43;4.65;;;;;;;5.02;100.00;100679.72;5108833;27;20404;-53
2021/12/07 10:32:16;;;;;;;12.20;4.60;;;;;;;5.05;100.00;100684.88;5074147;28;20097;-51
2021/12/07 10:34:42;;;;;;;10.75;3.97;;;;;;;5.01;100.00;100664.94;5073734;28;20055;-52
2021/12/07 10:37:09;;;;;;;12.65;4.10;;;;;;;5.10;100.00;100677.88;5109022;28;20031;-55
2021/12/07 10:39:39;;;;;;;16.35;4.20;;;;;;;4.75;100.00;100597.47;5108811;28;20296;-54
2021/12/07 10:42:14;;;;;;;13.27;4.35;;;;;;;5.14;100.00;100650.84;5108689;28;20036;-56
2021/12/07 10:44:40;;;;;;;11.50;3.80;;;;;;;4.80;100.00;100592.16;5108483;28;20020;-55
2021/12/07 10:47:13;;;;;;;10.20;3.30;;;;;;;5.13;100.00;100650.88;5090784;28;20032;-54
2021/12/07 10:49:51;;;;;;;12.93;3.75;;;;;;;5.30;100.00;100657.59;5108600;28;20393;-51
2021/12/07 10:52:28;;;;;;;12.77;4.50;;;;;;;5.33;100.00;100656.69;5108601;28;20042;-53
2021/12/07 10:54:58;;;;;;;16.20;4.40;;;;;;;5.30;100.00;100661.94;5090484;28;20023;-50
2021/12/07 10:57:28;;;;;;;10.52;4.00;;;;;;;5.28;100.00;100672.41;5108129;28;20032;-55
2021/12/07 11:00:00;;;;;;;18.95;5.20;;;;;;;5.14;100.00;100644.78;5119081;27;20039;-51
2021/12/07 11:02:30;;;;;;;16.30;4.78;;;;;;;5.23;100.00;100668.09;5127252;27;20020;-53
2021/12/07 11:04:57;;;;;;;15.80;5.05;;;;;;;5.20;100.00;100668.16;5127986;27;20520;-54
2021/12/07 11:07:27;;;;;;;15.50;4.82;;;;;;;5.12;100.00;100665.66;5110411;27;20024;-51
2021/12/07 11:10:10;;;;;;;24.88;6.95;;;;;;;5.06;100.00;100669.22;5129811;28;20049;-53
2021/12/07 11:12:46;;;;;;;16.02;5.38;;;;;;;5.03;100.00;100645.78;5111289;28;20077;-53
2021/12/07 11:15:17;;;;;;;19.58;5.78;;;;;;;5.02;100.00;100640.59;5129281;27;20061;-54
2021/12/07 11:17:43;;;;;;;22.70;7.30;;;;;;;5.09;100.00;100655.25;5095238;27;20084;-58
2021/12/07 11:20:09;;;;;;;19.75;5.88;;;;;;;5.06;100.00;100650.06;5129712;27;20463;-57
2021/12/07 11:22:40;;;;;;;15.48;5.35;;;;;;;5.11;100.00;100638.69;5129199;28;20130;-52
2021/12/07 11:25:06;;;;;;;16.65;5.88;;;;;;;4.89;100.00;100589.44;5111023;28;20031;-55
2021/12/07 11:30:20;;;;;;;21.63;6.90;;;;;;;5.26;100.00;100644.59;5129054;27;20562;-55
2021/12/07 11:32:51;;;;;;;20.05;6.68;;;;;;;4.85;100.00;100556.47;5129300;28;20518;-55
2021/12/07 11:35:23;;;;;;;22.50;6.30;;;;;;;5.21;100.00;100597.69;5093756;28;20031;-54
2021/12/07 11:37:50;;;;;;;21.05;6.30;;;;;;;5.32;100.00;100593.16;5128943;27;20027;-55
2021/12/07 11:40:19;;;;;;;22.08;6.95;;;;;;;5.46;100.00;100611.22;5119342;28;20031;-52
2021/12/07 11:42:45;;;;;;;28.23;8.35;;;;;;;5.38;100.00;100603.53;5080036;28;20040;-54
2021/12/07 11:45:12;;;;;;;24.70;8.05;;;;;;;5.47;100.00;100605.13;5115467;28;20035;-52
2021/12/07 11:47:43;;;;;;;22.08;6.57;;;;;;;5.49;100.00;100613.78;5115124;28;20027;-53
2021/12/07 11:50:11;;;;;;;23.52;7.82;;;;;;;5.56;100.00;100607.59;5115274;28;20019;-56
2021/12/07 11:52:36;;;;;;;23.85;7.10;;;;;;;5.58;100.00;100596.25;5115173;28;20529;-58
2021/12/07 11:55:03;;;;;;;25.15;7.47;;;;;;;5.65;100.00;100578.75;5096801;28;20024;-59
2021/12/07 11:57:28;;;;;;;20.67;7.68;;;;;;;5.75;100.00;100569.84;5114771;28;20070;-55
2021/12/07 11:59:54;;;;;;;24.95;8.70;;;;;;;5.63;100.00;100536.13;5096818;28;20069;-53
2021/12/07 12:02:19;;;;;;;36.75;9.20;;;;;;;5.76;100.00;100526.31;5115131;28;20059;-53
2021/12/07 12:04:46;;;;;;;35.60;10.13;;;;;;;5.76;100.00;100503.69;5096629;28;20039;-54
2021/12/07 12:07:11;;;;;;;36.83;10.55;;;;;;;5.65;100.00;100487.34;5114726;28;20066;-56
2021/12/07 12:09:45;;;;;;;30.42;9.93;;;;;;;5.87;100.00;100511.34;5114706;28;20459;-52
2021/12/07 12:12:35;;;;;;;32.03;10.50;;;;;;;6.00;100.00;100537.22;5114902;28;20175;-57
2021/12/07 12:15:09;;;;;;;30.63;8.70;;;;;;;6.03;100.00;100531.94;5096421;28;20038;-55
2021/12/07 12:17:44;;;;;;;19.98;6.97;;;;;;;6.06;100.00;100533.63;5114542;28;20027;-52
2021/12/07 12:20:30;;;;;;;18.10;5.68;;;;;;;5.61;100.00;100446.50;5096387;28;20039;-57
2021/12/07 12:23:24;;;;;;;20.20;5.47;;;;;;;6.09;100.00;100510.06;5096396;28;20081;-55
2021/12/07 12:26:04;;;;;;;11.85;3.95;;;;;;;6.16;100.00;100514.25;5114619;28;20628;-53
2021/12/07 12:28:37;;;;;;;10.35;3.83;;;;;;;6.22;100.00;100495.84;5113899;28;20052;-53
2021/12/07 12:31:05;;;;;;;10.65;3.47;;;;;;;6.23;100.00;100494.97;5114035;28;20394;-54
2021/12/07 12:33:49;;;;;;;13.02;4.03;;;;;;;6.18;100.00;100479.41;5114286;28;20030;-54
2021/12/07 12:36:15;;;;;;;13.95;3.67;;;;;;;5.91;100.00;100419.84;5114238;28;20394;-54
2021/12/07 12:38:55;;;;;;;12.75;3.50;;;;;;;5.59;100.00;100359.53;5095773;28;20494;-52
2021/12/07 12:41:21;;;;;;;11.60;3.63;;;;;;;6.32;100.00;100489.56;5114132;28;20038;-55
2021/12/07 12:43:54;;;;;;;12.48;4.50;;;;;;;5.91;100.00;100395.47;5078974;28;20131;-55
2021/12/07 12:46:26;;;;;;;15.25;4.82;;;;;;;6.30;100.00;100446.91;5114368;28;20023;-55
2021/12/07 12:48:56;;;;;;;16.55;5.28;;;;;;;6.19;100.00;100412.28;5095846;28;20057;-50
2021/12/07 12:51:22;;;;;;;18.03;5.33;;;;;;;5.91;100.00;100380.66;5113023;28;20081;-51
2021/12/07 12:53:50;;;;;;;11.27;4.57;;;;;;;5.80;100.00;100364.31;5113923;28;20070;-52
2021/12/07 12:56:24;;;;;;;13.45;5.15;;;;;;;6.09;100.00;100406.41;5095662;28;20031;-53
2021/12/07 12:58:52;;;;;;;21.27;5.95;;;;;;;6.17;100.00;100435.84;5112798;28;20040;-54
2021/12/07 13:01:32;;;;;;;15.13;5.57;;;;;;;6.11;100.00;100417.69;5112409;28;20110;-54
2021/12/07 13:03:59;;;;;;;15.05;4.95;;;;;;;6.11;100.00;100412.44;5093868;28;20059;-57
2021/12/07 13:06:25;;;;;;;9.13;3.72;;;;;;;6.01;100.00;100400.47;5111148;28;20031;-54
2021/12/07 13:09:07;;;;;;;12.60;4.65;;;;;;;6.00;100.00;100390.94;5111923;28;20065;-50